Time;durP1;ratioP1;P1;durP2;ratioP2;P2;SDS_P1;SDS_P2;PMS_P1;PMS_P2;Temp;Humidity;BMP_temperature;BMP_pressure;BME280_temperature;BME280_humidity;BME280_pressure;Samples;Min_cycle;Max_cycle;Signal;HPM_P1;HPM_P2
2022/07/26 00:01:49;;;;;;;6.30;1.88;;;22.80;1.00;;;;;;7361568;19;20021;-72
2022/07/26 00:04:20;;;;;;;3.88;2.08;;;22.70;1.00;;;;;;7364444;19;20013;-73
2022/07/26 00:06:52;;;;;;;6.70;2.10;;;22.70;1.00;;;;;;7364499;19;20016;-73
2022/07/26 00:09:24;;;;;;;3.55;2.05;;;22.80;1.00;;;;;;7365121;19;20022;-73
2022/07/26 00:11:58;;;;;;;5.07;1.70;;;22.80;1.00;;;;;;7381167;19;20077;-72
2022/07/26 00:14:31;;;;;;;7.38;2.05;;;22.80;1.00;;;;;;7362887;19;20010;-72
2022/07/26 00:17:01;;;;;;;6.03;2.25;;;22.90;1.00;;;;;;7362381;19;20498;-73
2022/07/26 00:19:31;;;;;;;5.10;1.90;;;23.00;1.00;;;;;;7366553;19;20464;-71
2022/07/26 00:24:48;;;;;;;3.25;1.80;;;22.90;1.00;;;;;;7361955;19;20037;-71
2022/07/26 00:27:21;;;;;;;3.80;2.03;;;23.00;1.00;;;;;;7364447;19;20516;-71
2022/07/26 00:29:54;;;;;;;5.75;1.92;;;23.10;1.00;;;;;;7388376;19;20010;-72
2022/07/26 00:32:24;;;;;;;4.65;1.95;;;23.10;1.00;;;;;;7358407;19;20010;-72
2022/07/26 00:34:54;;;;;;;4.65;2.00;;;23.00;1.00;;;;;;7365524;19;20458;-73
2022/07/26 00:37:24;;;;;;;2.63;1.52;;;22.90;1.00;;;;;;7363307;19;20026;-71
2022/07/26 00:39:56;;;;;;;4.10;1.65;;;22.80;1.00;;;;;;7365028;19;20011;-72
2022/07/26 00:42:26;;;;;;;3.75;1.48;;;22.80;1.00;;;;;;7359190;19;21396;-71
2022/07/26 00:44:59;;;;;;;4.82;2.20;;;22.80;1.00;;;;;;7385767;19;20010;-72
2022/07/26 00:47:31;;;;;;;15.80;2.17;;;22.90;1.00;;;;;;7362723;19;20011;-72
2022/07/26 00:50:01;;;;;;;4.97;1.67;;;22.80;1.00;;;;;;7365003;19;20441;-72
2022/07/26 00:52:33;;;;;;;5.47;1.77;;;22.70;1.00;;;;;;7357527;19;20116;-72
2022/07/26 00:55:12;;;;;;;2.42;1.30;;;22.80;1.00;;;;;;7362966;19;20468;-73
2022/07/26 00:57:46;;;;;;;4.15;1.83;;;22.80;1.00;;;;;;7366253;19;20382;-72
2022/07/26 01:00:21;;;;;;;2.67;1.42;;;22.40;1.00;;;;;;7373293;19;20082;-72
2022/07/26 01:02:51;;;;;;;2.85;1.70;;;21.90;1.00;;;;;;7387786;19;20019;-72
2022/07/26 01:05:21;;;;;;;3.80;1.92;;;21.00;1.00;;;;;;7371884;19;20010;-73
2022/07/26 01:07:52;;;;;;;3.03;2.17;;;20.50;1.00;;;;;;7370832;19;20015;-72
2022/07/26 01:10:25;;;;;;;5.38;2.30;;;20.20;3.80;;;;;;7372210;19;20032;-74
2022/07/26 01:12:57;;;;;;;4.47;2.28;;;19.80;7.40;;;;;;7365300;19;20009;-72
2022/07/26 01:15:34;;;;;;;4.07;2.50;;;19.60;12.70;;;;;;7368441;19;20007;-74
2022/07/26 01:18:04;;;;;;;7.38;2.78;;;19.50;16.60;;;;;;7394007;19;20014;-77
2022/07/26 01:20:34;;;;;;;5.65;2.53;;;19.50;21.50;;;;;;7372306;19;20010;-74
2022/07/26 01:23:10;;;;;;;5.78;3.00;;;19.60;26.70;;;;;;7364668;19;20015;-76
2022/07/26 01:25:40;;;;;;;3.83;3.08;;;19.60;31.60;;;;;;7370036;19;20016;-77
2022/07/26 01:28:14;;;;;;;5.30;3.33;;;19.60;32.80;;;;;;7372120;19;20570;-77
2022/07/26 01:30:50;;;;;;;5.93;2.88;;;19.50;29.70;;;;;;7370261;19;20019;-75
2022/07/26 01:33:20;;;;;;;3.97;2.65;;;19.40;32.50;;;;;;7367056;19;20020;-75
2022/07/26 01:35:53;;;;;;;4.05;2.75;;;19.30;33.00;;;;;;7389537;19;20010;-76
2022/07/26 01:38:26;;;;;;;7.85;3.33;;;19.50;34.90;;;;;;7369649;19;20022;-76
2022/07/26 01:40:58;;;;;;;7.22;3.20;;;19.40;36.10;;;;;;7368157;19;20027;-76
2022/07/26 01:43:32;;;;;;;5.10;3.22;;;19.30;39.30;;;;;;7366964;19;20010;-76
2022/07/26 01:46:05;;;;;;;3.80;2.75;;;19.40;40.40;;;;;;7369564;19;20014;-78
2022/07/26 01:48:36;;;;;;;2.70;2.50;;;19.40;38.50;;;;;;7369147;19;20018;-75
2022/07/26 01:51:09;;;;;;;5.18;2.60;;;19.50;36.20;;;;;;7389027;19;20030;-76
2022/07/26 01:53:43;;;;;;;4.65;2.75;;;19.50;33.50;;;;;;7365276;19;20020;-76
2022/07/26 01:56:14;;;;;;;4.60;2.65;;;19.70;32.90;;;;;;7367899;19;20010;-75
2022/07/26 01:58:44;;;;;;;4.65;2.60;;;19.60;30.40;;;;;;7369188;19;20354;-76
2022/07/26 02:01:14;;;;;;;3.33;2.42;;;19.70;30.60;;;;;;7367828;19;20014;-76
2022/07/26 02:04:04;;;;;;;4.85;2.75;;;19.70;32.60;;;;;;7364639;19;20015;-76
2022/07/26 02:06:37;;;;;;;4.00;2.25;;;19.70;32.60;;;;;;7369222;19;20041;-76
2022/07/26 02:09:12;;;;;;;3.78;2.70;;;19.70;34.80;;;;;;7367663;19;20077;-76
2022/07/26 02:11:42;;;;;;;2.95;2.55;;;19.70;35.30;;;;;;7388566;19;20011;-77
2022/07/26 02:14:12;;;;;;;4.85;2.67;;;19.70;36.60;;;;;;7363573;19;20025;-76
2022/07/26 02:16:58;;;;;;;3.92;2.67;;;19.70;36.40;;;;;;7366919;19;20022;-75
2022/07/26 02:19:30;;;;;;;5.07;2.35;;;19.70;37.80;;;;;;7368886;19;20042;-75
2022/07/26 02:22:03;;;;;;;4.57;2.88;;;19.60;38.50;;;;;;7360865;19;20027;-75
2022/07/26 02:24:36;;;;;;;3.60;2.28;;;19.70;38.90;;;;;;7369491;19;20013;-76
2022/07/26 02:27:07;;;;;;;4.00;2.30;;;19.60;38.40;;;;;;7390447;19;20018;-74
2022/07/26 02:29:38;;;;;;;4.68;2.42;;;19.70;36.70;;;;;;7370567;19;20041;-76
2022/07/26 02:32:09;;;;;;;4.63;2.10;;;19.80;37.40;;;;;;7362001;19;20486;-76
2022/07/26 02:34:39;;;;;;;10.40;2.72;;;19.80;37.20;;;;;;7366764;19;20050;-76
2022/07/26 02:37:10;;;;;;;5.28;2.70;;;19.70;37.70;;;;;;7365082;19;20006;-75
2022/07/26 02:39:42;;;;;;;5.38;2.42;;;19.60;36.70;;;;;;7369662;19;20025;-75
2022/07/26 02:42:18;;;;;;;4.75;2.50;;;19.60;37.00;;;;;;7363376;19;20046;-76
2022/07/26 02:44:47;;;;;;;4.18;2.17;;;19.70;37.00;;;;;;7389564;19;20015;-75
2022/07/26 02:47:18;;;;;;;5.40;2.28;;;19.80;37.10;;;;;;7367045;19;20538;-76
2022/07/26 02:49:48;;;;;;;2.42;2.10;;;19.90;35.80;;;;;;7369137;19;20006;-74
2022/07/26 02:52:18;;;;;;;4.63;2.10;;;19.90;35.90;;;;;;7362240;19;20421;-74
2022/07/26 02:54:51;;;;;;;3.00;2.50;;;20.20;33.20;;;;;;7367128;19;20010;-74
2022/07/26 02:57:20;;;;;;;2.70;2.28;;;20.00;32.60;;;;;;7366658;19;20443;-74
2022/07/26 02:59:51;;;;;;;3.92;2.05;;;19.90;35.30;;;;;;7390558;19;20026;-75
2022/07/26 03:02:21;;;;;;;4.95;2.17;;;19.80;35.90;;;;;;7362280;19;20007;-75
2022/07/26 03:04:51;;;;;;;4.97;2.10;;;19.80;37.10;;;;;;7366235;19;20011;-75
2022/07/26 03:07:21;;;;;;;4.60;1.92;;;19.80;37.90;;;;;;7367216;19;20127;-75
2022/07/26 03:09:54;;;;;;;2.20;1.90;;;19.90;38.70;;;;;;7368371;19;20015;-76
2022/07/26 03:12:24;;;;;;;3.42;2.40;;;19.80;38.50;;;;;;7361508;19;20017;-75
2022/07/26 03:14:54;;;;;;;4.50;1.90;;;19.70;38.30;;;;;;7388187;19;20015;-75
2022/07/26 03:17:24;;;;;;;3.63;1.90;;;19.70;37.30;;;;;;7367219;19;20350;-76
2022/07/26 03:19:54;;;;;;;6.07;1.90;;;19.70;39.20;;;;;;7365736;19;20421;-75
2022/07/26 03:22:24;;;;;;;2.80;1.88;;;19.50;37.70;;;;;;7361350;19;20010;-74
2022/07/26 03:24:56;;;;;;;4.32;2.20;;;19.60;37.30;;;;;;7366925;19;20010;-74
2022/07/26 03:27:26;;;;;;;4.22;2.00;;;19.60;37.90;;;;;;7366212;19;20066;-74
2022/07/26 03:29:56;;;;;;;3.10;1.67;;;19.60;36.10;;;;;;7389394;19;20035;-74
2022/07/26 03:32:26;;;;;;;5.20;2.33;;;19.60;33.70;;;;;;7361256;19;20492;-74
2022/07/26 03:34:56;;;;;;;5.10;2.30;;;19.70;31.60;;;;;;7364455;19;20516;-74
2022/07/26 03:37:26;;;;;;;3.53;1.92;;;19.60;30.20;;;;;;7367255;19;20123;-74
2022/07/26 03:40:17;;;;;;;4.97;1.95;;;19.60;30.10;;;;;;7368389;19;20046;-75
2022/07/26 03:42:48;;;;;;;4.10;2.00;;;19.60;30.30;;;;;;7361342;19;20003;-74
2022/07/26 03:45:18;;;;;;;4.15;2.65;;;19.60;32.60;;;;;;7366100;19;20035;-75
2022/07/26 03:47:48;;;;;;;4.78;2.13;;;19.70;28.80;;;;;;7389045;19;20018;-74
2022/07/26 03:50:18;;;;;;;5.05;2.58;;;19.70;26.60;;;;;;7367013;19;20013;-74
2022/07/26 03:52:47;;;;;;;4.15;2.65;;;19.70;26.20;;;;;;7359776;19;20011;-75
2022/07/26 03:58:02;;;;;;;4.30;1.83;;;19.60;23.40;;;;;;7367696;19;20563;-74
2022/07/26 04:00:32;;;;;;;5.22;1.73;;;19.60;25.60;;;;;;7366865;19;20018;-75
2022/07/26 04:03:02;;;;;;;3.20;1.77;;;19.50;25.40;;;;;;7381273;19;20014;-74
2022/07/26 04:05:32;;;;;;;3.53;1.85;;;19.40;24.40;;;;;;7364708;19;20014;-74
2022/07/26 04:08:05;;;;;;;4.07;1.60;;;19.60;21.70;;;;;;7365764;19;20020;-74
2022/07/26 04:10:37;;;;;;;2.10;1.90;;;19.50;24.60;;;;;;7367218;19;20015;-74
2022/07/26 04:13:07;;;;;;;2.83;1.85;;;19.40;23.80;;;;;;7359486;19;20018;-75
2022/07/26 04:15:37;;;;;;;3.45;1.58;;;19.40;26.40;;;;;;7364456;19;20023;-75
2022/07/26 04:18:07;;;;;;;4.75;2.15;;;19.40;26.50;;;;;;7388608;19;20021;-75
2022/07/26 04:20:37;;;;;;;2.53;1.83;;;19.40;25.60;;;;;;7366720;19;20090;-74
2022/07/26 04:23:07;;;;;;;2.40;1.60;;;19.40;25.00;;;;;;7359214;19;20006;-76
2022/07/26 04:25:43;;;;;;;3.13;1.92;;;19.50;23.10;;;;;;7364311;19;20045;-75
2022/07/26 04:28:13;;;;;;;3.20;1.73;;;19.40;25.00;;;;;;7366173;19;20024;-74
2022/07/26 04:30:43;;;;;;;2.08;1.70;;;19.40;24.00;;;;;;7364058;19;20101;-75
2022/07/26 04:33:13;;;;;;;6.60;2.00;;;19.40;22.90;;;;;;7358629;19;20252;-75
2022/07/26 04:35:43;;;;;;;3.03;1.90;;;19.40;24.20;;;;;;7386016;19;20022;-75
2022/07/26 04:38:13;;;;;;;4.07;1.88;;;19.40;22.70;;;;;;7364353;19;20082;-75
2022/07/26 04:40:45;;;;;;;4.25;1.98;;;19.40;22.80;;;;;;7366163;19;20480;-75
2022/07/26 04:43:17;;;;;;;7.68;2.33;;;19.40;22.90;;;;;;7361657;19;20073;-75
2022/07/26 04:45:47;;;;;;;4.20;1.95;;;19.50;24.20;;;;;;7364099;19;20467;-74
2022/07/26 04:48:18;;;;;;;4.32;2.13;;;19.80;20.50;;;;;;7365175;19;20006;-74
2022/07/26 04:50:48;;;;;;;3.17;1.77;;;20.40;14.90;;;;;;7385974;19;20096;-72
2022/07/26 04:53:18;;;;;;;4.72;2.50;;;20.50;11.90;;;;;;7360940;19;20090;-74
2022/07/26 04:55:51;;;;;;;3.83;1.73;;;20.50;11.90;;;;;;7363379;19;20011;-74
2022/07/26 04:58:21;;;;;;;3.60;1.90;;;21.70;5.00;;;;;;7365675;19;20416;-74
2022/07/26 05:00:50;;;;;;;2.92;1.60;;;22.20;1.00;;;;;;7362784;19;20101;-75
2022/07/26 05:03:41;;;;;;;5.10;2.33;;;21.60;3.30;;;;;;7359519;19;20010;-75
2022/07/26 05:06:11;;;;;;;4.00;1.80;;;21.20;4.50;;;;;;7362969;19;20020;-76
2022/07/26 05:08:42;;;;;;;2.38;1.85;;;20.60;7.50;;;;;;7387089;19;20021;-74
2022/07/26 05:11:14;;;;;;;3.38;1.80;;;20.80;8.20;;;;;;7360861;19;20018;-74
2022/07/26 05:13:44;;;;;;;2.95;1.90;;;20.90;7.80;;;;;;7358718;19;20491;-74
2022/07/26 05:16:14;;;;;;;3.33;2.22;;;20.50;8.60;;;;;;7361391;19;20007;-73
2022/07/26 05:18:44;;;;;;;2.65;1.80;;;20.50;11.00;;;;;;7365005;19;20021;-75
2022/07/26 05:21:19;;;;;;;5.10;2.13;;;20.50;8.90;;;;;;7362587;19;20010;-74
2022/07/26 05:23:50;;;;;;;2.50;2.08;;;20.20;10.50;;;;;;7381809;19;20052;-74
2022/07/26 05:26:22;;;;;;;3.33;2.22;;;20.10;11.70;;;;;;7360692;19;20119;-73
2022/07/26 05:28:53;;;;;;;2.78;2.10;;;20.20;12.20;;;;;;7362963;19;20454;-73
2022/07/26 05:31:22;;;;;;;3.00;1.92;;;20.10;11.40;;;;;;7360466;19;20014;-74
2022/07/26 05:33:53;;;;;;;5.45;2.20;;;20.30;11.30;;;;;;7358785;19;20448;-73
2022/07/26 05:36:23;;;;;;;2.42;2.22;;;20.70;8.30;;;;;;7361023;19;20023;-73
2022/07/26 05:38:53;;;;;;;5.95;3.00;;;22.30;1.00;;;;;;7385890;19;20569;-73
2022/07/26 05:41:26;;;;;;;8.32;2.22;;;22.00;1.00;;;;;;7361489;19;20097;-74
2022/07/26 05:43:56;;;;;;;2.40;1.73;;;21.50;2.50;;;;;;7360902;19;20106;-73
2022/07/26 05:46:25;;;;;;;2.47;1.92;;;23.00;1.00;;;;;;7369862;19;20482;-74
2022/07/26 05:48:55;;;;;;;4.10;2.10;;;23.70;1.00;;;;;;7370905;19;20011;-74
2022/07/26 05:51:25;;;;;;;6.68;2.75;;;24.20;1.00;;;;;;7368488;19;20014;-74
2022/07/26 05:53:58;;;;;;;5.75;2.15;;;24.20;1.00;;;;;;7387430;19;20513;-73
2022/07/26 05:56:30;;;;;;;5.18;2.33;;;24.20;1.00;;;;;;7367257;19;20318;-74
2022/07/26 05:59:00;;;;;;;6.05;2.10;;;23.00;1.00;;;;;;7370004;19;20019;-74
2022/07/26 06:01:31;;;;;;;5.10;2.47;;;22.10;1.00;;;;;;7366021;19;20014;-75
2022/07/26 06:04:01;;;;;;;3.92;2.30;;;21.20;1.00;;;;;;7364628;19;20398;-75
2022/07/26 06:06:31;;;;;;;4.68;2.30;;;21.00;4.00;;;;;;7368355;19;20038;-75
2022/07/26 06:09:01;;;;;;;5.30;2.30;;;21.60;1.00;;;;;;7391491;19;20045;-74
2022/07/26 06:11:33;;;;;;;7.22;2.33;;;21.70;1.00;;;;;;7367702;19;20482;-74
2022/07/26 06:14:03;;;;;;;4.20;2.28;;;21.70;1.00;;;;;;7363287;19;20118;-74
2022/07/26 06:16:33;;;;;;;6.43;2.10;;;22.00;1.00;;;;;;7367563;19;20008;-75
2022/07/26 06:19:04;;;;;;;4.63;2.22;;;22.10;1.00;;;;;;7369221;19;20011;-74
2022/07/26 06:21:37;;;;;;;5.38;2.28;;;22.20;1.00;;;;;;7367085;19;20015;-73
2022/07/26 06:24:07;;;;;;;3.17;1.75;;;23.20;1.00;;;;;;7384961;19;20010;-74
2022/07/26 06:26:41;;;;;;;3.08;1.80;;;22.90;1.00;;;;;;7364620;19;20477;-73
2022/07/26 06:29:11;;;;;;;3.38;1.80;;;22.50;1.00;;;;;;7368032;19;20006;-74
2022/07/26 06:31:41;;;;;;;6.53;1.70;;;22.50;1.00;;;;;;7366560;19;20014;-73
2022/07/26 06:34:11;;;;;;;9.75;1.95;;;22.80;1.00;;;;;;7364663;19;20015;-73
2022/07/26 06:36:41;;;;;;;2.05;1.50;;;22.20;1.00;;;;;;7366248;19;20509;-73
2022/07/26 06:39:11;;;;;;;3.90;1.63;;;22.50;1.00;;;;;;7368534;19;20082;-75
2022/07/26 06:41:43;;;;;;;3.97;1.50;;;23.20;1.00;;;;;;7388115;19;20010;-74
2022/07/26 06:44:13;;;;;;;2.20;1.50;;;22.90;1.00;;;;;;7364088;19;20094;-74
2022/07/26 06:46:43;;;;;;;2.15;1.30;;;22.70;1.00;;;;;;7365591;19;20525;-74
2022/07/26 06:49:14;;;;;;;4.18;1.58;;;22.90;1.00;;;;;;7368614;19;20006;-72
2022/07/26 06:51:51;;;;;;;6.60;1.40;;;22.90;1.00;;;;;;7364499;19;20006;-73
2022/07/26 06:54:21;;;;;;;5.78;1.55;;;23.40;1.00;;;;;;7366093;19;20014;-73
2022/07/26 06:56:53;;;;;;;4.55;1.52;;;23.20;1.00;;;;;;7385114;19;20027;-72
2022/07/26 06:59:24;;;;;;;2.75;1.40;;;23.50;1.00;;;;;;7366391;19;20090;-73
2022/07/26 07:01:54;;;;;;;2.95;1.48;;;23.00;1.00;;;;;;7361993;19;20035;-73
2022/07/26 07:04:30;;;;;;;2.83;1.20;;;23.30;1.00;;;;;;7364262;19;20255;-73
2022/07/26 07:07:01;;;;;;;4.50;1.50;;;23.20;1.00;;;;;;7366196;19;20086;-74
2022/07/26 07:09:35;;;;;;;3.92;1.45;;;22.80;1.00;;;;;;7367871;19;20127;-74
2022/07/26 07:12:09;;;;;;;3.88;1.40;;;22.90;1.00;;;;;;7384111;19;20014;-73
2022/07/26 07:14:40;;;;;;;2.85;1.20;;;23.10;1.00;;;;;;7365651;19;20491;-72
2022/07/26 07:17:10;;;;;;;2.72;0.90;;;22.90;1.00;;;;;;7364670;19;20018;-73
2022/07/26 07:19:49;;;;;;;2.03;1.10;;;22.60;1.00;;;;;;7367160;19;20497;-73
2022/07/26 07:22:18;;;;;;;4.10;1.40;;;22.90;1.00;;;;;;7363450;19;20010;-71
2022/07/26 07:24:49;;;;;;;3.83;1.05;;;22.50;1.00;;;;;;7364518;19;20018;-74
2022/07/26 07:27:21;;;;;;;3.55;1.00;;;23.50;1.00;;;;;;7365024;19;20070;-74
2022/07/26 07:29:51;;;;;;;2.13;1.30;;;23.70;1.00;;;;;;7389422;19;20018;-73
2022/07/26 07:32:21;;;;;;;7.88;1.13;;;24.20;1.00;;;;;;7361297;19;20014;-74
2022/07/26 07:34:53;;;;;;;2.92;1.00;;;24.00;1.00;;;;;;7364626;19;20015;-72
2022/07/26 07:37:23;;;;;;;3.15;1.00;;;23.20;1.00;;;;;;7365758;19;20074;-75
2022/07/26 07:39:53;;;;;;;2.28;1.20;;;22.90;1.00;;;;;;7366081;19;20017;-75
2022/07/26 07:42:25;;;;;;;1.90;0.80;;;23.30;1.00;;;;;;7362065;19;20023;-73
2022/07/26 07:44:55;;;;;;;5.15;1.13;;;24.00;1.00;;;;;;7386199;19;20019;-72
2022/07/26 07:47:25;;;;;;;5.30;1.30;;;23.90;1.00;;;;;;7364355;19;20017;-73
2022/07/26 07:49:55;;;;;;;3.33;1.20;;;24.00;1.00;;;;;;7367272;19;20017;-72
2022/07/26 07:52:25;;;;;;;4.22;1.48;;;24.20;1.00;;;;;;7362028;19;20007;-72
2022/07/26 07:54:56;;;;;;;2.38;1.20;;;24.60;1.00;;;;;;7362893;19;20014;-72
2022/07/26 07:57:48;;;;;;;4.85;1.02;;;24.40;1.00;;;;;;7363981;19;20115;-73
2022/07/26 08:00:19;;;;;;;3.40;1.17;;;24.10;1.00;;;;;;7366515;19;20025;-72
2022/07/26 08:02:56;;;;;;;1.52;0.80;;;24.20;1.00;;;;;;7380801;19;20034;-73
2022/07/26 08:05:26;;;;;;;3.28;1.02;;;23.30;1.00;;;;;;7364474;19;20017;-72
2022/07/26 08:07:56;;;;;;;1.27;1.00;;;24.00;1.00;;;;;;7365488;19;20006;-72
2022/07/26 08:10:26;;;;;;;3.78;0.88;;;24.10;1.00;;;;;;7365257;19;20007;-74
2022/07/26 08:12:58;;;;;;;2.05;1.20;;;23.60;1.00;;;;;;7358269;19;20434;-74
2022/07/26 08:15:28;;;;;;;4.80;1.10;;;24.10;1.00;;;;;;7363434;19;20479;-73
2022/07/26 08:17:59;;;;;;;1.83;0.80;;;24.20;1.00;;;;;;7385967;19;20037;-73
2022/07/26 08:20:29;;;;;;;3.38;0.90;;;24.50;1.00;;;;;;7367029;19;20015;-72
2022/07/26 08:22:59;;;;;;;4.28;1.10;;;23.70;1.00;;;;;;7355984;19;20017;-73
2022/07/26 08:25:30;;;;;;;3.10;0.90;;;23.70;1.00;;;;;;7362764;19;20007;-74
2022/07/26 08:28:03;;;;;;;2.30;1.00;;;24.20;1.00;;;;;;7362270;19;20011;-73
2022/07/26 08:30:33;;;;;;;2.58;0.70;;;24.50;1.00;;;;;;7364534;19;20014;-72
2022/07/26 08:33:03;;;;;;;2.95;0.90;;;23.90;1.00;;;;;;7379057;19;20386;-73
2022/07/26 08:35:33;;;;;;;4.20;1.15;;;24.20;1.00;;;;;;7362969;19;20078;-71
2022/07/26 08:38:03;;;;;;;1.60;0.88;;;23.20;1.00;;;;;;7363403;19;20050;-72
2022/07/26 08:40:34;;;;;;;4.28;0.90;;;23.50;1.00;;;;;;7363356;19;20028;-72
2022/07/26 08:43:07;;;;;;;2.22;0.90;;;23.50;1.00;;;;;;7356130;19;20095;-72
2022/07/26 08:45:37;;;;;;;4.47;1.33;;;23.60;1.00;;;;;;7363288;19;20006;-72
2022/07/26 08:48:07;;;;;;;2.28;0.95;;;23.60;1.00;;;;;;7384489;19;20021;-73
2022/07/26 08:50:47;;;;;;;1.75;0.90;;;23.50;1.00;;;;;;7361885;19;20011;-74
2022/07/26 08:53:17;;;;;;;3.45;0.88;;;24.10;1.00;;;;;;7358752;19;20066;-74
2022/07/26 08:55:48;;;;;;;1.63;0.80;;;24.20;1.00;;;;;;7361393;19;20074;-73
2022/07/26 08:58:42;;;;;;;2.15;0.93;;;24.10;1.00;;;;;;7362757;19;20029;-73
2022/07/26 09:01:13;;;;;;;;;;;24.20;1.00;;;;;;7361845;19;20015;-73
2022/07/26 09:03:44;;;;;;;3.45;0.90;;;23.50;1.00;;;;;;7358521;19;19974;-72
2022/07/26 09:06:19;;;;;;;1.38;0.70;;;23.80;1.00;;;;;;7360797;19;20466;-72
2022/07/26 09:08:51;;;;;;;1.45;0.88;;;24.00;1.00;;;;;;7384562;19;20022;-73
2022/07/26 09:11:34;;;;;;;5.22;1.00;;;24.00;1.00;;;;;;7358488;19;20043;-74
2022/07/26 09:14:10;;;;;;;2.65;0.88;;;24.00;1.00;;;;;;7355668;19;20015;-73
2022/07/26 09:16:41;;;;;;;4.13;1.50;;;23.60;1.00;;;;;;7361292;19;20035;-74
2022/07/26 09:19:21;;;;;;;2.00;0.90;;;23.80;1.00;;;;;;7367035;19;20102;-72
2022/07/26 09:21:53;;;;;;;1.92;0.90;;;23.70;1.00;;;;;;7368047;19;21470;-72
2022/07/26 09:24:34;;;;;;;2.47;0.77;;;23.60;1.00;;;;;;7369964;19;20006;-73
2022/07/26 09:27:05;;;;;;;2.28;0.75;;;24.30;1.00;;;;;;7390031;19;20496;-73
2022/07/26 09:29:49;;;;;;;0.80;0.70;;;23.70;1.00;;;;;;7371443;19;20074;-73
2022/07/26 09:32:21;;;;;;;2.83;0.82;;;24.50;1.00;;;;;;7365652;19;20006;-74
2022/07/26 09:34:55;;;;;;;1.45;0.70;;;23.80;1.00;;;;;;7369156;19;20017;-75
2022/07/26 09:37:38;;;;;;;2.03;1.02;;;24.80;1.00;;;;;;7368744;19;20026;-73
2022/07/26 09:40:10;;;;;;;2.47;0.93;;;24.60;1.00;;;;;;7369811;19;20015;-74
2022/07/26 09:42:54;;;;;;;2.40;0.70;;;24.90;1.00;;;;;;7367926;19;20097;-72
2022/07/26 09:45:27;;;;;;;2.20;0.73;;;24.40;1.00;;;;;;7369464;19;20015;-72
2022/07/26 09:47:57;;;;;;;2.33;0.77;;;24.20;1.00;;;;;;7392861;19;20279;-71
2022/07/26 09:50:29;;;;;;;3.40;0.70;;;24.10;1.00;;;;;;7371610;19;20017;-72
2022/07/26 09:53:06;;;;;;;2.05;1.05;;;23.60;1.00;;;;;;7362176;19;20367;-72
2022/07/26 09:55:37;;;;;;;1.75;0.82;;;23.40;1.00;;;;;;7368657;19;20014;-75
2022/07/26 09:58:14;;;;;;;4.72;1.00;;;24.00;1.00;;;;;;7371041;19;20035;-71
2022/07/26 10:00:47;;;;;;;3.58;1.08;;;23.90;1.00;;;;;;7366721;19;20006;-73
2022/07/26 10:03:17;;;;;;;2.28;0.80;;;24.00;1.00;;;;;;7365528;19;20010;-72
2022/07/26 10:05:47;;;;;;;2.70;0.82;;;23.30;1.00;;;;;;7389456;19;20030;-72
2022/07/26 10:08:17;;;;;;;3.15;0.90;;;23.50;1.00;;;;;;7367863;19;20010;-75
2022/07/26 10:10:54;;;;;;;4.20;1.00;;;24.10;1.00;;;;;;7368673;19;20010;-73
2022/07/26 10:13:24;;;;;;;5.18;1.15;;;23.80;1.00;;;;;;7365202;19;20078;-71
2022/07/26 10:15:57;;;;;;;4.43;1.38;;;23.90;1.00;;;;;;7368185;19;20014;-73
2022/07/26 10:18:43;;;;;;;3.75;1.17;;;24.30;1.00;;;;;;7370448;19;20019;-72
2022/07/26 10:21:24;;;;;;;6.18;1.00;;;24.30;1.00;;;;;;7368142;19;20018;-72
2022/07/26 10:23:55;;;;;;;3.17;1.02;;;24.90;1.00;;;;;;7386311;19;20014;-73
2022/07/26 10:26:44;;;;;;;1.75;1.00;;;24.40;1.00;;;;;;7366710;19;20012;-73
2022/07/26 10:29:28;;;;;;;2.30;1.10;;;23.80;1.00;;;;;;7369595;19;20391;-72
2022/07/26 10:32:22;;;;;;;1.70;0.93;;;24.60;1.00;;;;;;7363120;19;20011;-72
2022/07/26 10:34:52;;;;;;;2.15;1.02;;;24.70;1.00;;;;;;7365317;19;20462;-71
2022/07/26 10:37:28;;;;;;;2.17;0.80;;;24.30;1.00;;;;;;7365187;19;20017;-74
2022/07/26 10:40:23;;;;;;;1.98;0.80;;;23.90;1.00;;;;;;7369260;19;20010;-69
2022/07/26 10:42:53;;;;;;;1.45;0.80;;;24.10;1.00;;;;;;7360876;19;20074;-71
2022/07/26 10:45:24;;;;;;;0.88;0.70;;;24.10;1.00;;;;;;7369092;19;20014;-70
2022/07/26 10:48:17;;;;;;;4.30;1.00;;;24.20;1.00;;;;;;7390129;19;20021;-73
2022/07/26 10:50:50;;;;;;;1.77;0.80;;;25.00;1.00;;;;;;7368524;19;21300;-73
2022/07/26 10:53:22;;;;;;;1.75;0.90;;;24.60;1.00;;;;;;7361924;19;20006;-74
2022/07/26 10:55:53;;;;;;;2.65;0.70;;;25.10;1.00;;;;;;7364814;19;20041;-73
2022/07/26 10:58:24;;;;;;;2.50;0.88;;;24.90;1.00;;;;;;7368440;19;20011;-72
2022/07/26 11:01:01;;;;;;;4.85;0.77;;;25.00;1.00;;;;;;7365735;19;20031;-73
2022/07/26 11:03:41;;;;;;;3.05;1.08;;;24.60;1.00;;;;;;7358303;19;20041;-74
2022/07/26 11:06:13;;;;;;;2.45;0.80;;;24.90;1.00;;;;;;7358938;19;20031;-72
2022/07/26 11:08:43;;;;;;;3.42;1.10;;;24.60;1.00;;;;;;7388048;19;20477;-69
2022/07/26 11:11:29;;;;;;;1.00;0.55;;;24.40;1.00;;;;;;7363613;19;20074;-70
2022/07/26 11:14:07;;;;;;;1.65;0.80;;;25.00;1.00;;;;;;7361652;19;20014;-71
2022/07/26 11:16:39;;;;;;;1.20;0.70;;;26.10;1.00;;;;;;7364883;19;20172;-71
2022/07/26 11:19:20;;;;;;;1.13;0.77;;;25.40;1.00;;;;;;7367140;19;20024;-71
2022/07/26 11:21:56;;;;;;;1.67;0.70;;;25.10;1.00;;;;;;7362991;19;20090;-70
2022/07/26 11:24:26;;;;;;;1.73;0.85;;;25.20;1.00;;;;;;7363819;19;20374;-71
2022/07/26 11:26:56;;;;;;;1.25;0.80;;;26.60;1.00;;;;;;7385661;19;20042;-70
2022/07/26 11:29:31;;;;;;;1.30;0.80;;;25.60;1.00;;;;;;7367071;19;20011;-73
2022/07/26 11:32:17;;;;;;;1.50;0.60;;;25.00;1.00;;;;;;7362400;19;20013;-73
2022/07/26 11:35:00;;;;;;;0.63;0.60;;;25.50;1.00;;;;;;7363830;19;20032;-72
2022/07/26 11:37:30;;;;;;;1.83;0.80;;;25.70;1.00;;;;;;7364716;19;20030;-74
2022/07/26 11:40:00;;;;;;;1.35;0.80;;;24.90;1.00;;;;;;7366241;19;20014;-72
2022/07/26 11:42:30;;;;;;;2.55;0.73;;;25.20;1.00;;;;;;7362002;19;20017;-69
2022/07/26 11:45:00;;;;;;;2.20;0.70;;;25.40;1.00;;;;;;7384721;19;20426;-71
2022/07/26 11:47:29;;;;;;;1.25;0.52;;;25.80;1.00;;;;;;7361820;19;20078;-72
2022/07/26 11:50:07;;;;;;;4.97;0.70;;;25.40;1.00;;;;;;7366059;19;20053;-71
2022/07/26 11:52:51;;;;;;;3.28;0.88;;;25.30;1.00;;;;;;7358457;19;20013;-71
2022/07/26 11:55:28;;;;;;;1.13;0.70;;;25.90;1.00;;;;;;7365825;19;20035;-73
2022/07/26 11:57:58;;;;;;;0.68;0.60;;;26.20;1.00;;;;;;7364329;19;20052;-71
2022/07/26 12:00:28;;;;;;;1.13;0.50;;;25.60;1.00;;;;;;7365536;19;20028;-71
2022/07/26 12:03:01;;;;;;;1.23;0.77;;;25.40;1.00;;;;;;7379000;19;20404;-72
2022/07/26 12:05:35;;;;;;;1.42;0.60;;;25.70;1.00;;;;;;7365427;19;20264;-73
2022/07/26 12:08:07;;;;;;;1.15;0.70;;;25.50;1.00;;;;;;7363448;19;20010;-70
2022/07/26 12:10:37;;;;;;;2.13;0.60;;;26.20;1.00;;;;;;7364279;19;20015;-70
2022/07/26 12:13:11;;;;;;;1.13;0.47;;;26.20;1.00;;;;;;7354786;19;20419;-71
2022/07/26 12:15:52;;;;;;;1.15;0.55;;;25.60;1.00;;;;;;7361116;19;20010;-70
2022/07/26 12:18:26;;;;;;;1.73;0.80;;;25.90;1.00;;;;;;7361339;19;20018;-70
2022/07/26 12:21:04;;;;;;;1.10;0.60;;;26.20;1.00;;;;;;7380039;19;20011;-71
2022/07/26 12:23:44;;;;;;;3.75;0.75;;;26.40;1.00;;;;;;7357522;19;20081;-70
2022/07/26 12:26:22;;;;;;;1.15;0.60;;;26.30;1.00;;;;;;7359291;19;20010;-70
2022/07/26 12:28:52;;;;;;;6.18;0.90;;;25.90;1.00;;;;;;7365568;19;20006;-70
2022/07/26 12:31:30;;;;;;;2.78;0.50;;;26.40;1.00;;;;;;7363136;19;20086;-71
2022/07/26 12:34:01;;;;;;;0.80;0.60;;;25.90;1.00;;;;;;7359609;19;20021;-71
2022/07/26 12:36:35;;;;;;;1.63;0.80;;;26.20;1.00;;;;;;7361099;19;20018;-70
2022/07/26 12:39:06;;;;;;;3.60;0.73;;;25.70;1.00;;;;;;7387522;19;20097;-70
2022/07/26 12:41:37;;;;;;;0.82;0.50;;;26.60;1.00;;;;;;7361631;19;20021;-71
2022/07/26 12:44:09;;;;;;;1.90;0.90;;;27.20;1.00;;;;;;7359379;19;20086;-71
2022/07/26 12:46:43;;;;;;;1.33;0.80;;;26.40;1.00;;;;;;7360340;19;20488;-69
2022/07/26 12:49:14;;;;;;;1.70;0.93;;;26.60;1.00;;;;;;7362159;19;20019;-68
2022/07/26 12:51:46;;;;;;;1.73;0.82;;;25.70;1.00;;;;;;7361061;19;20007;-69
2022/07/26 12:54:16;;;;;;;3.20;0.68;;;26.20;1.00;;;;;;7360380;19;20034;-70
2022/07/26 12:56:47;;;;;;;1.33;0.60;;;26.20;1.00;;;;;;7383504;19;20019;-68
2022/07/26 12:59:17;;;;;;;3.47;0.73;;;26.20;1.00;;;;;;7364450;19;20014;-68
2022/07/26 13:01:47;;;;;;;1.27;0.60;;;26.30;1.00;;;;;;7361175;19;20473;-70
2022/07/26 13:04:17;;;;;;;3.53;0.70;;;25.90;1.00;;;;;;7360747;19;20020;-70
2022/07/26 13:06:50;;;;;;;1.80;0.63;;;26.70;1.00;;;;;;7361016;19;20014;-70
2022/07/26 13:09:19;;;;;;;3.03;0.80;;;26.50;1.00;;;;;;7363859;19;20569;-71
2022/07/26 13:11:49;;;;;;;4.13;0.68;;;26.20;1.00;;;;;;7380832;19;20022;-71
2022/07/26 13:14:19;;;;;;;1.25;0.68;;;25.80;1.00;;;;;;7361752;19;20090;-68
2022/07/26 13:16:49;;;;;;;0.70;0.50;;;25.90;1.00;;;;;;7361664;19;20011;-68
2022/07/26 13:19:22;;;;;;;3.20;0.98;;;26.50;1.00;;;;;;7363129;19;20007;-69
2022/07/26 13:21:54;;;;;;;1.55;0.70;;;27.00;1.00;;;;;;7356384;19;20007;-68
2022/07/26 13:24:27;;;;;;;3.15;0.70;;;26.30;1.00;;;;;;7362711;19;20108;-68
2022/07/26 13:26:58;;;;;;;1.08;0.70;;;26.00;1.00;;;;;;7383646;19;20021;-72
2022/07/26 13:29:29;;;;;;;1.25;0.75;;;26.70;1.00;;;;;;7361655;19;20006;-72